createdAt,value
2023-03-03T00:03:02.432Z,15.23
2023-03-03T00:08:07.270Z,16.57
2023-03-03T00:13:16.456Z,15.40
2023-03-03T00:18:26.785Z,15.83
2023-03-03T00:23:38.141Z,14.33
2023-03-03T00:28:47.288Z,14.37
2023-03-03T00:33:54.924Z,14.13
2023-03-03T00:39:17.290Z,13.43
2023-03-03T00:44:44.936Z,13.90
2023-03-03T00:49:48.106Z,14.80
2023-03-03T00:54:52.627Z,15.33
2023-03-03T00:59:56.045Z,13.23
2023-03-03T01:04:59.594Z,14.03
2023-03-03T01:10:04.069Z,13.53
2023-03-03T01:15:08.797Z,13.87
2023-03-03T01:20:14.104Z,12.77
2023-03-03T01:25:18.800Z,11.30
2023-03-03T01:30:22.363Z,12.77
2023-03-03T01:35:26.323Z,13.27
2023-03-03T01:40:32.552Z,12.30
2023-03-03T01:46:06.368Z,12.07
2023-03-03T01:51:17.078Z,13.07
2023-03-03T01:56:21.591Z,11.77
2023-03-03T02:01:29.520Z,12.13
2023-03-03T02:06:36.822Z,11.63
2023-03-03T02:11:44.272Z,11.73
2023-03-03T02:16:47.517Z,11.57
2023-03-03T02:21:51.325Z,10.93
2023-03-03T02:26:56.513Z,11.03
2023-03-03T02:31:59.793Z,10.87
2023-03-03T02:37:04.902Z,9.57
2023-03-03T02:42:14.180Z,9.67
2023-03-03T02:47:17.283Z,7.63
2023-03-03T02:52:20.544Z,8.10
2023-03-03T02:57:26.523Z,8.40
2023-03-03T03:02:29.612Z,7.77
2023-03-03T03:07:32.827Z,9.03
2023-03-03T03:12:37.279Z,9.40
2023-03-03T03:17:41.082Z,8.53
2023-03-03T03:22:44.579Z,9.20
2023-03-03T03:27:49.526Z,8.33
2023-03-03T03:32:52.869Z,7.90
2023-03-03T03:37:56.181Z,8.40
2023-03-03T03:43:01.772Z,6.90
2023-03-03T03:48:05.168Z,7.30
2023-03-03T03:53:09.203Z,6.50
2023-03-03T03:58:15.672Z,6.90
2023-03-03T04:03:19.170Z,6.80
2023-03-03T04:08:22.466Z,6.67
2023-03-03T04:13:28.993Z,6.90
2023-03-03T04:18:32.367Z,5.50
2023-03-03T04:23:35.566Z,6.30
2023-03-03T04:28:40.178Z,6.47
2023-03-03T04:33:43.853Z,6.10
2023-03-03T04:38:47.000Z,6.73
2023-03-03T04:43:51.575Z,6.00
2023-03-03T04:48:55.559Z,6.00
2023-03-03T04:54:02.753Z,6.37
2023-03-03T04:59:07.563Z,5.93
2023-03-03T05:04:11.234Z,6.13
2023-03-03T05:09:15.371Z,5.00
2023-03-03T05:14:26.400Z,5.63
2023-03-03T05:19:29.884Z,5.70
2023-03-03T05:24:33.204Z,4.93
2023-03-03T05:30:08.128Z,5.63
2023-03-03T05:35:13.187Z,6.07
2023-03-03T05:40:44.425Z,5.20
2023-03-03T05:45:49.465Z,5.10
2023-03-03T05:51:08.488Z,6.07
2023-03-03T05:56:11.672Z,5.83
2023-03-03T06:01:20.844Z,5.93
2023-03-03T06:06:35.125Z,6.37
2023-03-03T06:11:49.267Z,7.53
2023-03-03T06:16:54.726Z,6.23
2023-03-03T06:22:31.529Z,5.87
2023-03-03T06:27:35.357Z,5.40
2023-03-03T06:32:40.289Z,6.20
2023-03-03T06:37:43.999Z,7.17
2023-03-03T06:42:47.650Z,7.27
2023-03-03T06:53:43.842Z,6.17
2023-03-03T06:59:02.800Z,5.60
2023-03-03T07:04:15.239Z,5.53
2023-03-03T07:09:24.114Z,6.27
2023-03-03T07:14:27.465Z,6.43
2023-03-03T07:19:54.251Z,6.50
2023-03-03T07:25:04.752Z,7.00
2023-03-03T07:30:25.726Z,6.80
2023-03-03T07:35:39.957Z,6.87
2023-03-03T07:40:49.450Z,6.20
2023-03-03T07:47:47.785Z,6.50
2023-03-03T07:58:49.682Z,6.77
2023-03-03T08:04:02.117Z,7.67
2023-03-03T08:09:55.086Z,8.07
2023-03-03T08:15:19.122Z,6.57
2023-03-03T08:20:54.043Z,7.77
2023-03-03T08:26:00.024Z,6.43
2023-03-03T08:31:16.717Z,6.53
2023-03-03T08:37:05.881Z,7.63
2023-03-03T08:42:09.043Z,8.50
2023-03-03T08:47:13.735Z,8.67
2023-03-03T08:52:38.745Z,7.40
2023-03-03T08:57:58.357Z,6.80
2023-03-03T09:03:03.239Z,6.57
2023-03-03T09:08:07.238Z,6.20
2023-03-03T09:13:15.316Z,7.87
2023-03-03T09:18:23.768Z,7.03
2023-03-03T09:23:35.096Z,12.10
2023-03-03T09:28:39.077Z,8.40
2023-03-03T09:33:45.625Z,9.63
2023-03-03T09:38:49.362Z,8.30
2023-03-03T09:44:17.400Z,8.33
2023-03-03T09:49:32.377Z,10.20
2023-03-03T09:54:55.150Z,8.33
2023-03-03T10:00:23.853Z,7.37
2023-03-03T10:05:39.009Z,8.63
2023-03-03T10:10:51.681Z,8.03
2023-03-03T10:16:20.891Z,9.20
2023-03-03T10:21:37.120Z,8.37
2023-03-03T10:27:12.658Z,8.00
2023-03-03T10:32:45.694Z,8.27
2023-03-03T10:38:05.449Z,7.83
2023-03-03T10:43:31.138Z,7.60
2023-03-03T10:49:01.099Z,8.30
2023-03-03T10:54:19.905Z,7.80
2023-03-03T10:59:41.199Z,9.43
2023-03-03T11:04:56.787Z,9.80
2023-03-03T11:10:14.971Z,9.30
2023-03-03T11:15:44.128Z,9.83
2023-03-03T11:20:55.442Z,10.20
2023-03-03T11:26:09.788Z,11.20
2023-03-03T11:31:22.543Z,9.93
2023-03-03T11:36:34.605Z,9.33
2023-03-03T11:41:42.437Z,9.27
2023-03-03T11:46:48.859Z,8.37
2023-03-03T11:52:04.178Z,9.10
2023-03-03T11:57:21.569Z,9.80
2023-03-03T12:02:45.365Z,8.10
2023-03-03T12:07:58.579Z,8.23
2023-03-03T12:13:07.859Z,7.97
2023-03-03T12:18:46.358Z,7.60
2023-03-03T12:24:07.973Z,6.83
2023-03-03T12:29:23.280Z,6.97
2023-03-03T12:34:35.274Z,7.27
2023-03-03T12:39:46.356Z,10.23
2023-03-03T12:45:00.755Z,10.47
2023-03-03T12:50:22.092Z,10.53
2023-03-03T12:55:36.738Z,9.70
2023-03-03T13:00:51.546Z,11.17
2023-03-03T13:06:01.971Z,11.07
2023-03-03T13:11:24.484Z,11.43
2023-03-03T13:16:41.014Z,11.40
2023-03-03T13:21:51.501Z,11.73
2023-03-03T13:26:59.987Z,12.33
2023-03-03T13:32:13.875Z,11.63
2023-03-03T13:37:22.146Z,11.27
2023-03-03T13:42:32.536Z,11.73
2023-03-03T13:47:47.227Z,13.20
2023-03-03T13:53:04.825Z,13.20
2023-03-03T13:58:22.060Z,11.37
2023-03-03T14:04:00.873Z,9.73
2023-03-03T14:09:36.422Z,9.87
2023-03-03T14:14:48.609Z,9.63
2023-03-03T14:20:06.238Z,11.37
2023-03-03T14:25:12.676Z,10.23
2023-03-03T14:30:30.763Z,12.07
2023-03-03T14:35:39.264Z,12.33
2023-03-03T14:40:45.536Z,10.43
2023-03-03T14:45:50.614Z,10.23
2023-03-03T14:51:04.761Z,9.17
2023-03-03T14:56:25.074Z,9.43
2023-03-03T15:01:34.224Z,9.67
2023-03-03T15:06:44.054Z,9.10
2023-03-03T15:11:47.362Z,8.07
2023-03-03T15:16:51.485Z,8.77
2023-03-03T15:22:06.010Z,9.07
2023-03-03T15:27:18.875Z,9.80
2023-03-03T15:32:31.499Z,8.87
2023-03-03T15:37:49.047Z,8.10
2023-03-03T15:42:59.319Z,8.40
2023-03-03T15:48:25.810Z,8.83
2023-03-03T15:53:57.075Z,7.23
2023-03-03T15:59:33.659Z,8.40
2023-03-03T16:04:42.053Z,8.53
2023-03-03T16:09:59.691Z,7.53
2023-03-03T16:15:21.131Z,7.80
2023-03-03T16:20:29.570Z,7.13
2023-03-03T16:25:45.376Z,7.57
2023-03-03T16:30:55.709Z,7.03
2023-03-03T16:36:09.774Z,7.00
2023-03-03T16:41:20.350Z,7.33
2023-03-03T16:46:33.340Z,6.90
2023-03-03T16:51:46.489Z,6.40
2023-03-03T16:57:02.211Z,6.43
2023-03-03T17:02:21.208Z,8.47
2023-03-03T17:07:40.703Z,7.43
2023-03-03T17:13:22.814Z,7.57
2023-03-03T17:18:41.300Z,8.00
2023-03-03T17:23:54.842Z,12.00
2023-03-03T17:29:11.406Z,7.40
2023-03-03T17:34:29.224Z,8.53
2023-03-03T17:39:57.398Z,9.63
2023-03-03T17:45:08.394Z,9.10
2023-03-03T17:50:29.914Z,9.73
2023-03-03T17:55:44.370Z,9.47
2023-03-03T18:01:00.962Z,9.83
2023-03-03T18:06:31.438Z,10.40
2023-03-03T18:12:01.167Z,10.27
2023-03-03T18:17:26.130Z,11.57
2023-03-03T18:22:34.653Z,12.00
2023-03-03T18:27:39.989Z,11.07
2023-03-03T18:32:46.166Z,12.77
2023-03-03T18:37:52.489Z,13.13
2023-03-03T18:42:56.908Z,15.37
2023-03-03T18:48:11.304Z,13.20
2023-03-03T18:53:26.885Z,12.00
2023-03-03T18:58:42.505Z,10.03
2023-03-03T19:04:04.816Z,10.07
2023-03-03T19:09:13.416Z,10.33
2023-03-03T19:14:25.818Z,8.63
2023-03-03T19:19:34.433Z,8.47
2023-03-03T19:24:39.386Z,9.03
2023-03-03T19:30:23.019Z,9.10
2023-03-03T19:35:37.153Z,7.70
2023-03-03T19:40:48.843Z,7.97
2023-03-03T19:46:06.543Z,8.57
2023-03-03T19:51:36.542Z,6.87
2023-03-03T19:56:51.778Z,6.00
2023-03-03T20:02:26.335Z,6.30
2023-03-03T20:07:42.393Z,5.50
2023-03-03T20:13:00.298Z,4.77
2023-03-03T20:18:29.860Z,4.60
2023-03-03T20:23:42.655Z,4.93
2023-03-03T20:29:12.542Z,4.53
2023-03-03T20:34:20.614Z,5.43
2023-03-03T20:39:38.786Z,5.70
2023-03-03T20:44:57.058Z,5.13
2023-03-03T20:50:19.160Z,4.77
2023-03-03T20:55:33.912Z,5.10
2023-03-03T21:00:44.212Z,5.00
2023-03-03T21:05:58.625Z,5.13
2023-03-03T21:11:03.682Z,5.10
2023-03-03T21:16:14.030Z,4.70
2023-03-03T21:21:17.514Z,5.03
2023-03-03T21:26:48.481Z,5.13
2023-03-03T21:31:54.973Z,4.63
2023-03-03T21:36:59.371Z,5.00
2023-03-03T21:42:05.836Z,5.40
2023-03-03T21:47:12.286Z,5.50
2023-03-03T21:52:18.436Z,5.30
2023-03-03T21:57:22.493Z,5.40
2023-03-03T22:02:27.288Z,5.93
2023-03-03T22:07:30.727Z,6.63
2023-03-03T22:12:33.945Z,7.60
2023-03-03T22:17:38.575Z,9.07
2023-03-03T22:22:42.062Z,8.37
2023-03-03T22:27:45.375Z,9.50
2023-03-03T22:32:52.363Z,10.60
2023-03-03T22:37:56.493Z,9.97
2023-03-03T22:42:59.915Z,9.73
2023-03-03T22:48:08.493Z,9.80
2023-03-03T22:53:11.844Z,11.10
2023-03-03T22:58:15.791Z,11.50
2023-03-03T23:03:21.872Z,11.07
2023-03-03T23:08:25.279Z,11.07
2023-03-03T23:13:28.528Z,9.60
2023-03-03T23:18:33.236Z,9.80
2023-03-03T23:23:36.462Z,8.30
2023-03-03T23:28:39.780Z,7.73
2023-03-03T23:33:44.548Z,7.23
2023-03-03T23:38:47.800Z,7.30
2023-03-03T23:43:51.015Z,7.40
2023-03-03T23:48:55.556Z,6.20
2023-03-03T23:53:58.790Z,6.37
2023-03-03T23:59:05.945Z,6.90
